Time;durP1;ratioP1;P1;durP2;ratioP2;P2;SDS_P1;SDS_P2;PMS_P1;PMS_P2;Temp;Humidity;BMP_temperature;BMP_pressure;BME280_temperature;BME280_humidity;BME280_pressure;Samples;Min_cycle;Max_cycle;Signal;HPM_P1;HPM_P2
2022/07/26 00:00:12;;;;;;;7.45;1.45;;;20.30;99.90;;;;;;7334576;19;109792;-78
2022/07/26 00:02:40;;;;;;;9.45;1.65;;;20.30;99.90;;;;;;7335165;19;111467;-78
2022/07/26 00:05:17;;;;;;;6.30;1.58;;;20.30;99.90;;;;;;7334440;19;109422;-77
2022/07/26 00:07:45;;;;;;;9.90;1.50;;;20.30;99.90;;;;;;7336260;19;110426;-78
2022/07/26 00:10:13;;;;;;;6.53;1.58;;;20.20;99.90;;;;;;7335776;19;111588;-77
2022/07/26 00:12:40;;;;;;;9.00;2.03;;;20.20;99.90;;;;;;7341265;19;109930;-77
2022/07/26 00:15:09;;;;;;;7.28;1.80;;;20.20;99.90;;;;;;7346355;19;110456;-78
2022/07/26 00:17:37;;;;;;;8.43;1.55;;;20.20;99.90;;;;;;7342688;19;109612;-78
2022/07/26 00:20:05;;;;;;;7.25;1.40;;;20.20;99.90;;;;;;7343184;19;109979;-78
2022/07/26 00:22:35;;;;;;;6.40;1.38;;;20.10;99.90;;;;;;7341949;19;110973;-78
2022/07/26 00:25:05;;;;;;;7.50;1.48;;;20.10;99.90;;;;;;7342893;19;109402;-78
2022/07/26 00:27:35;;;;;;;6.97;1.60;;;20.10;99.90;;;;;;7337735;19;109405;-77
2022/07/26 00:30:07;;;;;;;6.20;1.38;;;20.00;99.90;;;;;;7343425;19;111232;-78
2022/07/26 00:32:36;;;;;;;5.85;1.50;;;20.00;99.90;;;;;;7341909;19;110378;-79
2022/07/26 00:35:05;;;;;;;10.15;1.70;;;20.00;99.90;;;;;;7348761;19;111265;-78
2022/07/26 00:37:33;;;;;;;6.82;1.40;;;20.00;99.90;;;;;;7343157;19;109527;-78
2022/07/26 00:40:00;;;;;;;7.07;1.70;;;20.00;99.90;;;;;;7342777;19;110168;-78
2022/07/26 00:42:27;;;;;;;8.45;1.58;;;19.90;99.90;;;;;;7341564;19;112101;-78
2022/07/26 00:44:54;;;;;;;8.60;1.75;;;19.90;99.90;;;;;;7338767;19;110166;-77
2022/07/26 00:47:21;;;;;;;8.82;1.65;;;19.90;99.90;;;;;;7339649;19;109470;-77
2022/07/26 00:49:49;;;;;;;8.32;1.88;;;19.90;99.90;;;;;;7341942;19;111012;-78
2022/07/26 00:52:16;;;;;;;7.45;1.60;;;19.90;99.90;;;;;;7340450;19;109926;-78
2022/07/26 00:54:44;;;;;;;11.23;2.05;;;19.90;99.90;;;;;;7343010;19;109741;-77
2022/07/26 00:57:13;;;;;;;7.47;1.77;;;20.00;99.90;;;;;;7346722;19;111919;-77
2022/07/26 00:59:42;;;;;;;12.00;1.83;;;20.00;99.90;;;;;;7340674;19;110471;-77
2022/07/26 01:02:10;;;;;;;10.25;1.80;;;20.00;99.90;;;;;;7341119;19;110564;-78
2022/07/26 01:04:38;;;;;;;9.73;1.73;;;20.00;99.90;;;;;;7341945;19;109935;-77
2022/07/26 01:07:06;;;;;;;8.55;1.88;;;20.00;99.90;;;;;;7341380;19;110459;-77
2022/07/26 01:09:41;;;;;;;14.00;1.85;;;20.00;99.90;;;;;;7340129;19;111059;-77
2022/07/26 01:12:09;;;;;;;12.52;2.15;;;20.00;99.90;;;;;;7340207;19;109577;-77
2022/07/26 01:14:36;;;;;;;9.98;2.20;;;20.00;99.90;;;;;;7337926;19;109881;-77
2022/07/26 01:17:03;;;;;;;10.98;1.92;;;20.00;99.90;;;;;;7339747;19;111225;-78
2022/07/26 01:19:30;;;;;;;11.27;1.90;;;20.00;99.90;;;;;;7345501;19;109804;-77
2022/07/26 01:21:57;;;;;;;8.80;1.95;;;20.00;99.90;;;;;;7338166;19;110115;-77
2022/07/26 01:24:25;;;;;;;7.45;1.77;;;20.10;99.90;;;;;;7339720;19;110081;-77
2022/07/26 01:26:54;;;;;;;7.60;2.22;;;20.00;99.90;;;;;;7339117;19;110653;-77
2022/07/26 01:29:22;;;;;;;10.85;2.30;;;20.00;99.90;;;;;;7339714;19;110059;-78
2022/07/26 01:32:03;;;;;;;9.30;1.75;;;20.00;99.90;;;;;;7340810;19;110397;-78
2022/07/26 01:34:31;;;;;;;7.03;1.83;;;20.00;99.90;;;;;;7338118;19;110838;-78
2022/07/26 01:36:58;;;;;;;11.20;2.08;;;20.00;99.90;;;;;;7339983;19;111410;-78
2022/07/26 01:39:26;;;;;;;7.43;2.00;;;20.00;99.90;;;;;;7340713;19;109937;-77
2022/07/26 01:41:55;;;;;;;8.43;1.67;;;20.00;99.90;;;;;;7343940;19;110834;-78
2022/07/26 01:44:23;;;;;;;11.77;2.42;;;20.00;99.90;;;;;;7340251;19;110377;-78
2022/07/26 01:46:50;;;;;;;9.55;1.85;;;20.00;99.90;;;;;;7337213;19;111234;-77
2022/07/26 01:49:17;;;;;;;11.05;2.25;;;20.00;99.90;;;;;;7339289;19;111569;-78
2022/07/26 01:51:44;;;;;;;8.77;2.15;;;20.00;99.90;;;;;;7339501;19;112273;-78
2022/07/26 01:54:11;;;;;;;10.52;2.00;;;20.00;99.90;;;;;;7336857;19;110516;-78
2022/07/26 01:56:39;;;;;;;11.45;2.30;;;20.00;99.90;;;;;;7339256;19;110120;-78
2022/07/26 01:59:06;;;;;;;11.35;2.20;;;20.00;99.90;;;;;;7338972;19;109356;-77
2022/07/26 02:01:33;;;;;;;10.68;2.17;;;20.00;99.90;;;;;;7338924;19;110675;-78
2022/07/26 02:04:06;;;;;;;11.70;2.35;;;20.00;99.90;;;;;;7345057;19;110575;-78
2022/07/26 02:06:35;;;;;;;11.25;2.47;;;20.00;99.90;;;;;;7340076;19;110610;-78
2022/07/26 02:09:03;;;;;;;15.15;2.30;;;20.00;99.90;;;;;;7340598;19;111453;-78
2022/07/26 02:11:33;;;;;;;11.10;2.38;;;20.00;99.90;;;;;;7340822;19;109753;-78
2022/07/26 02:14:02;;;;;;;15.77;3.05;;;20.00;99.90;;;;;;7338716;19;110680;-77
2022/07/26 02:16:31;;;;;;;11.63;2.25;;;20.00;99.90;;;;;;7338861;19;111564;-77
2022/07/26 02:18:58;;;;;;;11.32;2.92;;;20.00;99.90;;;;;;7338699;19;110626;-77
2022/07/26 02:21:25;;;;;;;10.70;2.53;;;20.00;99.90;;;;;;7336959;19;109820;-78
2022/07/26 02:23:52;;;;;;;14.35;2.33;;;20.00;99.90;;;;;;7337427;19;111766;-78
2022/07/26 02:26:20;;;;;;;17.35;2.40;;;20.00;99.90;;;;;;7342870;19;109742;-78
2022/07/26 02:28:47;;;;;;;11.38;2.28;;;20.00;99.90;;;;;;7337258;19;111160;-78
2022/07/26 02:31:14;;;;;;;12.93;2.33;;;20.00;99.90;;;;;;7335674;19;109408;-77
2022/07/26 02:33:41;;;;;;;14.45;2.25;;;20.10;99.90;;;;;;7333199;19;110420;-79
2022/07/26 02:36:08;;;;;;;14.48;2.92;;;20.10;99.90;;;;;;7335355;19;111122;-77
2022/07/26 02:38:36;;;;;;;11.43;2.22;;;20.00;99.90;;;;;;7334783;19;109745;-78
2022/07/26 02:41:05;;;;;;;14.18;2.47;;;20.00;99.90;;;;;;7336795;19;110891;-77
2022/07/26 02:43:32;;;;;;;13.40;2.53;;;20.00;99.90;;;;;;7337556;19;111164;-78
2022/07/26 02:45:59;;;;;;;13.43;2.40;;;20.10;99.90;;;;;;7340601;19;110296;-77
2022/07/26 02:48:31;;;;;;;13.93;2.97;;;20.10;99.90;;;;;;7335974;19;111267;-78
2022/07/26 02:50:58;;;;;;;11.68;2.45;;;20.10;99.90;;;;;;7335940;19;110491;-78
2022/07/26 02:53:26;;;;;;;11.63;2.22;;;20.00;99.90;;;;;;7337005;19;110222;-77
2022/07/26 02:55:53;;;;;;;15.13;3.08;;;20.10;99.90;;;;;;7334913;19;110405;-77
2022/07/26 02:58:20;;;;;;;10.95;2.38;;;20.10;99.90;;;;;;7337111;19;109532;-77
2022/07/26 03:00:47;;;;;;;18.58;3.00;;;20.10;99.90;;;;;;7336254;19;110980;-75
2022/07/26 03:03:15;;;;;;;13.70;2.88;;;20.10;99.90;;;;;;7329526;19;110841;-74
2022/07/26 03:05:42;;;;;;;15.52;2.60;;;20.10;99.90;;;;;;7336141;19;109509;-74
2022/07/26 03:08:09;;;;;;;12.48;2.60;;;20.10;99.90;;;;;;7340342;19;109563;-74
2022/07/26 03:10:36;;;;;;;19.08;2.88;;;20.10;99.90;;;;;;7337418;19;111166;-74
2022/07/26 03:13:03;;;;;;;11.73;2.65;;;20.20;99.90;;;;;;7336886;19;110589;-74
2022/07/26 03:15:30;;;;;;;12.75;2.70;;;20.20;99.90;;;;;;7337996;19;111129;-74
2022/07/26 03:17:57;;;;;;;13.73;2.65;;;20.20;99.90;;;;;;7335475;19;109309;-74
2022/07/26 03:20:24;;;;;;;16.50;2.90;;;20.20;99.90;;;;;;7335147;19;113493;-74
2022/07/26 03:22:51;;;;;;;11.80;2.92;;;20.20;99.90;;;;;;7334425;19;110751;-74
2022/07/26 03:25:18;;;;;;;16.48;2.80;;;20.20;99.90;;;;;;7336675;19;109814;-74
2022/07/26 03:27:46;;;;;;;16.17;2.70;;;20.20;99.90;;;;;;7334259;19;110512;-74
2022/07/26 03:30:13;;;;;;;13.82;2.78;;;20.20;99.90;;;;;;7341335;19;111192;-74
2022/07/26 03:32:40;;;;;;;16.60;2.83;;;20.20;99.90;;;;;;7335861;19;110326;-74
2022/07/26 03:35:08;;;;;;;19.05;3.08;;;20.20;99.90;;;;;;7334192;19;111526;-74
2022/07/26 03:37:36;;;;;;;13.57;2.80;;;20.20;99.90;;;;;;7335549;19;110241;-74
2022/07/26 03:40:13;;;;;;;10.02;2.70;;;20.20;99.90;;;;;;7336782;19;110669;-74
2022/07/26 03:42:40;;;;;;;15.68;3.08;;;20.20;99.90;;;;;;7336578;19;111169;-74
2022/07/26 03:45:08;;;;;;;17.08;3.22;;;20.20;99.90;;;;;;7335672;19;109444;-74
2022/07/26 03:47:36;;;;;;;16.88;3.17;;;20.30;99.90;;;;;;7341849;19;110893;-74
2022/07/26 03:50:07;;;;;;;11.38;2.72;;;20.20;99.90;;;;;;7342964;19;111187;-74
2022/07/26 03:52:34;;;;;;;21.77;3.53;;;20.30;99.90;;;;;;7346909;19;110502;-74
2022/07/26 03:56:27;;;;;;;11.88;3.03;;;20.20;99.90;;;;;;7336494;19;114750;-74
2022/07/26 03:57:49;;;;;;;17.08;3.13;;;20.20;99.90;;;;;;7341764;19;110022;-74
2022/07/26 04:00:17;;;;;;;16.75;3.22;;;20.20;99.90;;;;;;7340928;19;110073;-74
2022/07/26 04:02:44;;;;;;;8.43;2.78;;;20.20;99.90;;;;;;7340639;19;111508;-74
2022/07/26 04:05:11;;;;;;;16.73;2.70;;;20.30;99.90;;;;;;7342547;19;109927;-74
2022/07/26 04:07:45;;;;;;;18.48;2.97;;;20.20;99.90;;;;;;7342310;19;109453;-74
2022/07/26 04:10:20;;;;;;;16.38;3.50;;;20.20;99.90;;;;;;7340232;19;111133;-74
2022/07/26 04:12:47;;;;;;;16.02;3.15;;;20.20;99.90;;;;;;7342873;19;109437;-74
2022/07/26 04:15:15;;;;;;;14.15;2.92;;;20.20;99.90;;;;;;7346003;19;109764;-75
2022/07/26 04:17:43;;;;;;;15.32;3.03;;;20.20;99.90;;;;;;7343026;19;110283;-74
2022/07/26 04:20:11;;;;;;;16.77;3.40;;;20.30;99.90;;;;;;7342472;19;114090;-74
2022/07/26 04:22:39;;;;;;;15.02;3.03;;;20.30;99.90;;;;;;7342917;19;110086;-74
2022/07/26 04:25:08;;;;;;;16.17;3.67;;;20.30;99.90;;;;;;7342298;19;110017;-74
2022/07/26 04:27:36;;;;;;;18.65;3.50;;;20.30;99.90;;;;;;7340683;19;110450;-74
2022/07/26 04:30:05;;;;;;;15.77;2.85;;;20.30;99.90;;;;;;7341626;19;110105;-74
2022/07/26 04:32:36;;;;;;;14.90;3.35;;;20.30;99.90;;;;;;7342874;19;109140;-74
2022/07/26 04:35:04;;;;;;;9.90;2.90;;;20.30;99.90;;;;;;7340372;19;111566;-74
2022/07/26 04:37:37;;;;;;;18.90;3.13;;;20.30;99.90;;;;;;7347443;19;111610;-74
2022/07/26 04:40:06;;;;;;;14.20;3.35;;;20.30;99.90;;;;;;7341422;19;110518;-74
2022/07/26 04:42:33;;;;;;;14.00;3.05;;;20.30;99.90;;;;;;7341131;19;110945;-75
2022/07/26 04:45:00;;;;;;;11.98;2.63;;;20.30;99.90;;;;;;7341524;19;109481;-74
2022/07/26 04:47:33;;;;;;;17.10;3.25;;;20.30;99.90;;;;;;7341375;19;110853;-74
2022/07/26 04:50:01;;;;;;;11.50;3.03;;;20.30;99.90;;;;;;7340042;19;111255;-74
2022/07/26 04:52:28;;;;;;;16.25;3.65;;;20.30;99.90;;;;;;7342621;19;109393;-74
2022/07/26 04:54:55;;;;;;;15.55;3.55;;;20.40;99.90;;;;;;7339793;19;110471;-74
2022/07/26 04:57:22;;;;;;;16.52;3.25;;;20.40;99.90;;;;;;7343287;19;110199;-74
2022/07/26 04:59:49;;;;;;;14.27;3.15;;;20.40;99.90;;;;;;7341147;19;109512;-74
2022/07/26 05:02:36;;;;;;;15.20;2.73;;;20.40;99.90;;;;;;7337288;19;112915;-74
2022/07/26 05:05:04;;;;;;;16.08;3.28;;;20.40;99.90;;;;;;7340138;19;109365;-74
2022/07/26 05:07:45;;;;;;;24.83;3.22;;;20.40;99.90;;;;;;7338342;19;110301;-74
2022/07/26 05:10:14;;;;;;;14.05;2.85;;;20.40;99.90;;;;;;7337545;19;110248;-75
2022/07/26 05:12:41;;;;;;;19.20;3.47;;;20.50;99.90;;;;;;7339391;19;110285;-75
2022/07/26 05:15:09;;;;;;;17.92;3.45;;;20.40;99.90;;;;;;7334833;19;113740;-74
2022/07/26 05:17:42;;;;;;;16.98;3.20;;;20.40;99.90;;;;;;7337687;19;110619;-74
2022/07/26 05:20:12;;;;;;;18.70;3.33;;;20.50;99.90;;;;;;7343976;19;109441;-74
2022/07/26 05:22:39;;;;;;;13.73;3.30;;;20.50;99.90;;;;;;7339738;19;112586;-74
2022/07/26 05:25:06;;;;;;;16.50;3.50;;;20.50;99.90;;;;;;7339782;19;109802;-74
2022/07/26 05:27:34;;;;;;;19.25;3.60;;;20.50;99.90;;;;;;7338120;19;111960;-74
2022/07/26 05:30:01;;;;;;;18.35;3.42;;;20.60;99.90;;;;;;7340715;19;110466;-74
2022/07/26 05:32:28;;;;;;;19.45;3.20;;;20.60;99.90;;;;;;7339961;19;111565;-74
2022/07/26 05:34:55;;;;;;;19.15;3.22;;;20.60;99.90;;;;;;7338717;19;110738;-74
2022/07/26 05:37:22;;;;;;;15.80;3.80;;;20.60;99.90;;;;;;7336782;19;110155;-74
2022/07/26 05:39:49;;;;;;;14.57;3.45;;;20.70;99.90;;;;;;7338275;19;109642;-75
2022/07/26 05:42:16;;;;;;;19.23;3.75;;;20.70;99.90;;;;;;7340350;19;110420;-74
2022/07/26 05:44:43;;;;;;;13.32;3.08;;;20.70;99.90;;;;;;7338431;19;110007;-74
2022/07/26 05:47:10;;;;;;;28.98;3.88;;;20.80;99.90;;;;;;7337045;19;111548;-74
2022/07/26 05:49:38;;;;;;;16.80;3.65;;;20.80;99.90;;;;;;7337601;19;110995;-74
2022/07/26 05:52:09;;;;;;;17.13;3.28;;;20.90;99.90;;;;;;7339818;19;109405;-74
2022/07/26 05:54:36;;;;;;;22.90;4.18;;;20.90;99.90;;;;;;7338012;19;110162;-73
2022/07/26 05:57:03;;;;;;;14.48;3.65;;;20.90;99.90;;;;;;7338865;19;110012;-74
2022/07/26 05:59:32;;;;;;;16.50;3.28;;;20.90;99.90;;;;;;7340061;19;109667;-75
2022/07/26 06:01:59;;;;;;;16.00;4.07;;;20.90;99.90;;;;;;7339216;19;109752;-74
2022/07/26 06:04:26;;;;;;;16.23;3.63;;;20.90;99.90;;;;;;7344676;19;110151;-74
2022/07/26 06:06:54;;;;;;;13.15;3.17;;;20.90;99.90;;;;;;7338246;19;109413;-74
2022/07/26 06:09:23;;;;;;;17.95;3.47;;;20.90;99.90;;;;;;7338617;19;110404;-74
2022/07/26 06:11:50;;;;;;;16.58;3.80;;;20.90;99.90;;;;;;7339544;19;109392;-75
2022/07/26 06:14:18;;;;;;;11.63;2.78;;;20.90;99.90;;;;;;7339254;19;113695;-75
2022/07/26 06:16:46;;;;;;;15.55;3.38;;;21.00;99.90;;;;;;7339954;19;111289;-75
2022/07/26 06:19:13;;;;;;;22.95;3.15;;;21.00;99.90;;;;;;7337844;19;109483;-74
2022/07/26 06:21:44;;;;;;;14.30;3.60;;;21.10;99.90;;;;;;7338569;19;109505;-74
2022/07/26 06:24:12;;;;;;;16.45;3.40;;;21.20;99.90;;;;;;7339391;19;110820;-74
2022/07/26 06:26:39;;;;;;;15.52;3.28;;;21.30;99.90;;;;;;7342004;19;110657;-74
2022/07/26 06:29:06;;;;;;;14.88;3.00;;;21.40;99.90;;;;;;7336286;19;111543;-75
2022/07/26 06:31:33;;;;;;;17.05;3.53;;;21.50;99.90;;;;;;7338887;19;109986;-74
2022/07/26 06:34:01;;;;;;;15.98;3.03;;;21.60;99.90;;;;;;7337690;19;112969;-75
2022/07/26 06:36:28;;;;;;;9.50;2.78;;;21.60;99.90;;;;;;7334661;19;111127;-74
2022/07/26 06:38:57;;;;;;;11.45;2.97;;;21.70;99.90;;;;;;7338555;19;109566;-74
2022/07/26 06:41:24;;;;;;;14.00;3.03;;;21.80;99.90;;;;;;7337187;19;109870;-74
2022/07/26 06:43:51;;;;;;;13.90;3.00;;;22.00;99.90;;;;;;7337394;19;111569;-74
2022/07/26 06:46:19;;;;;;;16.23;3.17;;;22.00;99.90;;;;;;7338754;19;109700;-75
2022/07/26 06:48:48;;;;;;;13.93;3.08;;;22.00;99.90;;;;;;7343820;19;111353;-74
2022/07/26 06:51:22;;;;;;;11.80;2.50;;;22.00;99.90;;;;;;7337199;19;109769;-74
2022/07/26 06:53:49;;;;;;;11.20;2.78;;;22.10;99.90;;;;;;7338172;19;110245;-74
2022/07/26 06:56:17;;;;;;;11.70;2.67;;;22.20;99.90;;;;;;7336328;19;110175;-75
2022/07/26 06:58:45;;;;;;;10.48;3.05;;;22.30;99.90;;;;;;7335988;19;110228;-75
2022/07/26 07:01:13;;;;;;;16.23;3.38;;;22.50;99.90;;;;;;7337356;19;110784;-74
2022/07/26 07:04:00;;;;;;;10.68;2.92;;;22.60;99.90;;;;;;7338725;19;111649;-74
2022/07/26 07:06:27;;;;;;;12.98;2.88;;;22.70;99.90;;;;;;7338439;19;110105;-74
2022/07/26 07:08:54;;;;;;;10.43;3.03;;;22.70;99.90;;;;;;7342284;19;110839;-75
2022/07/26 07:11:21;;;;;;;14.27;2.58;;;22.70;99.90;;;;;;7338052;19;111356;-75
2022/07/26 07:13:48;;;;;;;8.77;2.78;;;22.80;99.90;;;;;;7335861;19;110512;-75
2022/07/26 07:16:15;;;;;;;9.38;2.75;;;22.80;99.90;;;;;;7334809;19;111842;-74
2022/07/26 07:18:42;;;;;;;11.15;3.35;;;22.90;99.90;;;;;;7336920;19;109550;-75
2022/07/26 07:21:09;;;;;;;13.05;2.85;;;22.90;99.90;;;;;;7339934;19;110379;-74
2022/07/26 07:23:36;;;;;;;10.35;2.35;;;23.00;99.90;;;;;;7344165;19;110654;-74
2022/07/26 07:26:03;;;;;;;11.05;2.35;;;23.00;99.90;;;;;;7335656;19;109815;-75
2022/07/26 07:28:32;;;;;;;11.23;2.00;;;22.80;99.90;;;;;;7338016;19;110457;-74
2022/07/26 07:31:00;;;;;;;10.48;2.10;;;22.80;99.90;;;;;;7348739;19;110590;-76
2022/07/26 07:33:29;;;;;;;6.55;1.65;;;22.90;99.90;;;;;;7345344;19;111997;-75
2022/07/26 07:36:09;;;;;;;4.82;1.80;;;23.00;99.90;;;;;;7342871;19;110136;-76
2022/07/26 07:38:36;;;;;;;12.73;2.00;;;23.00;99.90;;;;;;7344133;19;109416;-74
2022/07/26 07:41:08;;;;;;;9.30;1.85;;;22.90;99.90;;;;;;7344172;19;110489;-75
2022/07/26 07:43:35;;;;;;;7.97;1.55;;;22.80;99.90;;;;;;7344409;19;111229;-75
2022/07/26 07:46:03;;;;;;;7.15;1.77;;;22.80;99.90;;;;;;7345103;19;110302;-78
2022/07/26 07:48:30;;;;;;;5.70;1.77;;;22.90;99.90;;;;;;7343335;19;109714;-77
2022/07/26 07:50:57;;;;;;;9.32;1.65;;;23.00;99.90;;;;;;7342826;19;111402;-79
2022/07/26 07:53:25;;;;;;;9.13;1.77;;;23.10;99.90;;;;;;7347342;19;111443;-76
2022/07/26 07:55:52;;;;;;;9.00;1.50;;;23.10;99.90;;;;;;7342718;19;111187;-79
2022/07/26 07:58:21;;;;;;;8.77;1.50;;;23.10;99.90;;;;;;7344316;19;109315;-79
2022/07/26 08:00:48;;;;;;;7.88;1.45;;;23.10;99.90;;;;;;7343897;19;110227;-75
2022/07/26 08:03:15;;;;;;;7.03;1.63;;;23.10;99.90;;;;;;7342050;19;110514;-77
2022/07/26 08:05:47;;;;;;;8.25;1.27;;;23.20;99.90;;;;;;7342051;19;110437;-79
2022/07/26 08:08:17;;;;;;;4.43;1.13;;;23.20;99.90;;;;;;7341824;19;110661;-77
2022/07/26 08:10:48;;;;;;;9.95;1.40;;;23.20;99.90;;;;;;7342933;19;110384;-78
2022/07/26 08:13:22;;;;;;;8.20;1.45;;;23.20;99.90;;;;;;7341948;19;110587;-76
2022/07/26 08:15:53;;;;;;;5.93;1.20;;;23.20;99.90;;;;;;7347926;19;110379;-75
2022/07/26 08:18:22;;;;;;;7.45;1.20;;;23.30;99.90;;;;;;7343559;19;109786;-75
2022/07/26 08:20:51;;;;;;;6.15;1.40;;;23.30;99.90;;;;;;7344783;19;110473;-74
2022/07/26 08:23:19;;;;;;;6.50;1.58;;;23.30;99.90;;;;;;7341106;19;110132;-75
2022/07/26 08:25:47;;;;;;;3.90;1.05;;;23.20;99.90;;;;;;7343582;19;109285;-74
2022/07/26 08:28:26;;;;;;;4.10;1.25;;;23.20;99.90;;;;;;7342660;19;109633;-75
2022/07/26 08:31:13;;;;;;;4.18;1.30;;;23.20;99.90;;;;;;7341100;19;111465;-76
2022/07/26 08:33:40;;;;;;;7.43;1.58;;;23.30;99.90;;;;;;7342233;19;109426;-76
2022/07/26 08:36:15;;;;;;;4.55;1.08;;;23.20;99.90;;;;;;7342881;19;110351;-76
2022/07/26 08:38:43;;;;;;;9.60;1.48;;;23.30;99.90;;;;;;7345153;19;110274;-76
2022/07/26 08:41:14;;;;;;;5.53;1.50;;;23.30;99.90;;;;;;7343459;19;111028;-78
2022/07/26 08:43:41;;;;;;;5.63;1.52;;;23.30;99.90;;;;;;7343153;19;111512;-75
2022/07/26 08:46:23;;;;;;;6.05;1.60;;;23.40;99.90;;;;;;7342392;19;112092;-75
2022/07/26 08:48:56;;;;;;;13.82;1.63;;;23.40;99.90;;;;;;7341448;19;111540;-76
2022/07/26 08:51:25;;;;;;;7.55;1.60;;;23.40;99.90;;;;;;7342311;19;111269;-75
2022/07/26 08:53:57;;;;;;;5.18;1.50;;;23.50;99.90;;;;;;7342641;19;109278;-75
2022/07/26 08:56:36;;;;;;;6.90;1.50;;;23.60;99.90;;;;;;7341102;19;112427;-74
2022/07/26 08:59:05;;;;;;;8.70;1.80;;;23.50;99.80;;;;;;7341931;19;111157;-74
2022/07/26 09:01:33;;;;;;;11.13;1.80;;;23.60;99.90;;;;;;7348213;19;109216;-74
2022/07/26 09:04:18;;;;;;;8.40;1.63;;;23.60;99.80;;;;;;7340289;19;110170;-74
2022/07/26 09:07:17;;;;;;;4.88;1.30;;;23.60;99.70;;;;;;7343073;19;109862;-74
2022/07/26 09:10:01;;;;;;;9.88;1.40;;;23.50;99.80;;;;;;7341811;19;111270;-74
2022/07/26 09:12:30;;;;;;;8.70;1.42;;;23.40;99.60;;;;;;7341870;19;110164;-75
2022/07/26 09:14:59;;;;;;;10.10;1.58;;;23.40;99.90;;;;;;7340337;19;109913;-76
2022/07/26 09:17:42;;;;;;;6.68;1.50;;;23.50;99.90;;;;;;7340609;19;110445;-75
2022/07/26 09:20:31;;;;;;;3.92;1.10;;;23.60;99.70;;;;;;7342852;19;111435;-74
2022/07/26 09:23:07;;;;;;;6.20;1.40;;;23.60;99.80;;;;;;7348131;19;111055;-74
2022/07/26 09:25:43;;;;;;;8.13;1.67;;;23.60;99.60;;;;;;7337330;19;109917;-75
2022/07/26 09:28:28;;;;;;;4.20;1.30;;;23.60;99.80;;;;;;7338621;19;110041;-74
2022/07/26 09:30:58;;;;;;;8.13;1.35;;;23.80;99.70;;;;;;7339968;19;110456;-75
2022/07/26 09:33:41;;;;;;;4.82;1.17;;;23.80;99.60;;;;;;7340441;19;110045;-74
2022/07/26 09:36:09;;;;;;;6.22;1.20;;;23.90;99.30;;;;;;7341299;19;109540;-75
2022/07/26 09:38:46;;;;;;;5.88;1.23;;;24.00;99.30;;;;;;7341668;19;110526;-75
2022/07/26 09:41:26;;;;;;;6.18;1.35;;;24.00;99.20;;;;;;7341339;19;111155;-75
2022/07/26 09:43:54;;;;;;;4.97;1.40;;;24.20;99.50;;;;;;7340124;19;109424;-75
2022/07/26 09:46:24;;;;;;;7.20;1.23;;;24.30;99.20;;;;;;7346597;19;110415;-75
2022/07/26 09:48:54;;;;;;;8.43;1.35;;;24.40;99.00;;;;;;7339842;19;109256;-75
2022/07/26 09:51:45;;;;;;;3.88;1.13;;;24.60;99.10;;;;;;7341727;19;110516;-75
2022/07/26 09:54:28;;;;;;;7.43;1.10;;;24.70;98.60;;;;;;7340971;19;110938;-75
2022/07/26 09:56:56;;;;;;;3.28;0.90;;;24.70;98.50;;;;;;7340290;19;109242;-75
2022/07/26 09:59:25;;;;;;;6.80;1.25;;;24.70;98.40;;;;;;7341228;19;110434;-75
2022/07/26 10:01:53;;;;;;;11.23;1.40;;;24.70;98.10;;;;;;7341249;19;111443;-75
2022/07/26 10:04:21;;;;;;;4.22;0.88;;;24.70;97.90;;;;;;7340699;19;111122;-76
2022/07/26 10:06:48;;;;;;;6.25;1.20;;;24.70;98.10;;;;;;7340837;19;109461;-76
2022/07/26 10:09:21;;;;;;;3.83;1.15;;;24.80;98.00;;;;;;7344637;19;112955;-75
2022/07/26 10:11:59;;;;;;;3.78;1.15;;;24.80;97.80;;;;;;7340963;19;110463;-75
2022/07/26 10:14:32;;;;;;;5.95;1.30;;;24.90;97.50;;;;;;7340602;19;110116;-76
2022/07/26 10:17:00;;;;;;;5.57;1.25;;;24.80;97.40;;;;;;7339466;19;110010;-76
2022/07/26 10:19:38;;;;;;;4.65;1.05;;;24.80;97.20;;;;;;7339131;19;110429;-74
2022/07/26 10:22:30;;;;;;;7.13;1.30;;;24.80;97.40;;;;;;7339784;19;110075;-75
2022/07/26 10:25:17;;;;;;;8.57;1.50;;;24.60;97.80;;;;;;7341113;19;110290;-74
2022/07/26 10:27:47;;;;;;;4.85;1.42;;;24.40;98.80;;;;;;7335311;19;111012;-74
2022/07/26 10:30:21;;;;;;;7.95;1.35;;;24.00;99.90;;;;;;7338724;19;111781;-74
2022/07/26 10:33:05;;;;;;;7.97;1.55;;;23.90;99.90;;;;;;7342058;19;109512;-74
2022/07/26 10:35:39;;;;;;;7.28;1.23;;;23.80;99.90;;;;;;7339559;19;111174;-74
2022/07/26 10:38:21;;;;;;;6.07;1.80;;;23.60;99.90;;;;;;7336712;19;109984;-74
2022/07/26 10:41:07;;;;;;;10.20;1.63;;;23.60;99.90;;;;;;7338211;19;110440;-74
2022/07/26 10:43:34;;;;;;;9.30;1.43;;;23.60;99.90;;;;;;7338618;19;109718;-74
2022/07/26 10:46:14;;;;;;;5.82;1.50;;;23.50;99.90;;;;;;7336993;19;110406;-74
2022/07/26 10:48:54;;;;;;;6.80;1.73;;;23.50;99.90;;;;;;7338299;19;110244;-75
2022/07/26 10:51:33;;;;;;;10.32;1.50;;;23.50;99.90;;;;;;7334441;19;110493;-74
2022/07/26 10:54:01;;;;;;;3.58;1.45;;;23.50;99.90;;;;;;7338878;19;110794;-74
2022/07/26 10:56:29;;;;;;;5.65;1.42;;;23.30;99.90;;;;;;7339490;19;109933;-74
2022/07/26 10:59:00;;;;;;;5.82;1.75;;;23.20;99.90;;;;;;7337015;19;109831;-74
2022/07/26 11:01:38;;;;;;;4.70;1.50;;;23.20;99.90;;;;;;7338709;19;113864;-74
2022/07/26 11:04:16;;;;;;;6.53;1.50;;;23.20;99.90;;;;;;7339239;19;111126;-74
2022/07/26 11:06:44;;;;;;;4.55;1.10;;;23.10;99.90;;;;;;7335194;19;109448;-74
2022/07/26 11:09:11;;;;;;;7.97;1.80;;;23.00;99.90;;;;;;7339716;19;110445;-74
2022/07/26 11:11:39;;;;;;;5.50;1.50;;;22.90;99.90;;;;;;7338458;19;111292;-74
2022/07/26 11:14:14;;;;;;;4.00;1.48;;;22.70;99.90;;;;;;7338931;19;109321;-74
2022/07/26 11:16:51;;;;;;;3.13;1.70;;;22.60;99.90;;;;;;7343378;19;110976;-74
2022/07/26 11:19:23;;;;;;;5.53;1.58;;;22.40;99.90;;;;;;7336771;19;112489;-74
2022/07/26 11:21:58;;;;;;;2.60;1.23;;;22.40;99.90;;;;;;7338177;19;110415;-74
2022/07/26 11:24:25;;;;;;;4.13;1.42;;;22.30;99.90;;;;;;7337712;19;110071;-74
2022/07/26 11:26:53;;;;;;;4.18;1.80;;;22.20;99.90;;;;;;7336592;19;109498;-74
2022/07/26 11:29:33;;;;;;;2.80;1.50;;;22.20;99.90;;;;;;7337706;19;109841;-74
2022/07/26 11:32:15;;;;;;;3.25;1.30;;;22.20;99.90;;;;;;7337863;19;111300;-74
2022/07/26 11:34:45;;;;;;;4.50;1.45;;;22.30;99.90;;;;;;7338877;19;109920;-74
2022/07/26 11:37:13;;;;;;;2.83;1.40;;;22.20;99.90;;;;;;7337313;19;109672;-74
2022/07/26 11:39:40;;;;;;;1.58;0.90;;;22.30;99.90;;;;;;7343000;19;112158;-74
2022/07/26 11:42:10;;;;;;;1.45;0.90;;;22.30;99.90;;;;;;7337128;19;110585;-74
2022/07/26 11:44:41;;;;;;;1.10;0.90;;;22.20;99.90;;;;;;7337056;19;111250;-74
2022/07/26 11:47:19;;;;;;;1.50;0.88;;;22.10;99.90;;;;;;7337471;19;109928;-74
2022/07/26 11:49:52;;;;;;;2.30;0.73;;;22.20;99.90;;;;;;7336401;19;110059;-74
2022/07/26 11:52:39;;;;;;;6.07;0.88;;;22.30;99.90;;;;;;7336649;19;109986;-75
2022/07/26 11:55:07;;;;;;;4.72;0.80;;;22.40;99.90;;;;;;7336803;19;109342;-74
2022/07/26 11:57:34;;;;;;;0.68;0.57;;;22.70;99.90;;;;;;7334380;19;109646;-74
2022/07/26 12:00:02;;;;;;;1.13;0.73;;;22.90;99.90;;;;;;7336474;19;111453;-74
2022/07/26 12:02:29;;;;;;;1.75;0.45;;;23.10;99.90;;;;;;7341540;19;110316;-74
2022/07/26 12:05:16;;;;;;;1.48;0.50;;;23.10;99.90;;;;;;7337037;19;110776;-74
2022/07/26 12:07:55;;;;;;;1.42;0.68;;;23.10;99.90;;;;;;7340612;19;109411;-74
2022/07/26 12:10:22;;;;;;;;;;;23.10;99.90;;;;;;7343936;19;114217;-74
2022/07/26 12:13:04;;;;;;;3.03;0.70;;;23.00;99.90;;;;;;7345542;19;110498;-74
2022/07/26 12:15:49;;;;;;;0.65;0.52;;;23.00;99.90;;;;;;7342677;19;110592;-74
2022/07/26 12:18:28;;;;;;;1.00;0.60;;;23.10;99.90;;;;;;7340537;19;109872;-75
2022/07/26 12:21:03;;;;;;;1.38;0.82;;;23.10;99.90;;;;;;7342961;19;111219;-74
2022/07/26 12:24:00;;;;;;;3.00;0.90;;;23.10;99.90;;;;;;7343133;19;110743;-75
2022/07/26 12:26:29;;;;;;;1.40;0.90;;;23.20;99.90;;;;;;7345378;19;111302;-74
2022/07/26 12:29:22;;;;;;;1.48;1.10;;;23.10;99.90;;;;;;7341636;19;109779;-74
2022/07/26 12:31:45;;;;;;;9.35;2.67;;;23.10;99.90;;;;;;7342373;19;109570;-74
2022/07/26 12:34:19;;;;;;;1.77;1.48;;;23.10;99.90;;;;;;7339144;19;109785;-74
2022/07/26 12:36:46;;;;;;;2.17;1.20;;;23.10;99.90;;;;;;7342126;19;109480;-74
2022/07/26 12:39:20;;;;;;;3.42;0.93;;;22.90;99.90;;;;;;7342212;19;110787;-75
2022/07/26 12:41:49;;;;;;;2.03;0.70;;;22.70;99.90;;;;;;7342319;19;111032;-74
2022/07/26 12:44:16;;;;;;;2.13;0.80;;;22.60;99.90;;;;;;7341418;19;109991;-74
2022/07/26 12:46:43;;;;;;;2.13;0.90;;;22.40;99.90;;;;;;7340983;19;111087;-74
2022/07/26 12:49:11;;;;;;;1.85;0.70;;;22.30;99.90;;;;;;7344646;19;110454;-74